Mayport, Pennsylvania
Current Conditions -  °F | °C
As of 7:53 AM on Monday 22 Dec 2014 (Local Time) from KDUJ Reporting Station
Haze Haze  
Wind Chill: 13°   Ceiling: Unl
Heat Index: 22°   Visibility: 5mi
Dew Point: 19°   Wind: 8mph
Humidity: 89%   Direction: 110°ESE
Pressure: 30.14"   Gusts: NA
Location:  41.03°N, 79.25°W
Report Text: KDUJ 221253Z AUTO 11007KT 5SM BR CLR M06/M07 A3014 RMK AO2 SLP232 T10561072
Loading
Personal Weather Stations






























Interactive Weather Map New forecast layout! Learn more

10-Day Weather Forecast

Advertisements
Track Severe Weather on mobile